sensor_id;sensor_type;location;lat;lon;timestamp;pressure;altitude;pressure_sealevel;temperature;humidity
63204;BME280;49297;43.210;27.914;2022-11-15T00:01:43;102005.75;;;9.47;71.38
63204;BME280;49297;43.210;27.914;2022-11-15T00:04:09;101998.94;;;9.43;71.63
63204;BME280;49297;43.210;27.914;2022-11-15T00:06:35;101996.09;;;9.46;71.07
63204;BME280;49297;43.210;27.914;2022-11-15T00:09:02;102007.41;;;9.48;71.53
63204;BME280;49297;43.210;27.914;2022-11-15T00:11:28;101999.56;;;9.46;71.37
63204;BME280;49297;43.210;27.914;2022-11-15T00:13:56;102001.56;;;9.43;71.63
63204;BME280;49297;43.210;27.914;2022-11-15T00:16:22;102003.47;;;9.41;71.50
63204;BME280;49297;43.210;27.914;2022-11-15T00:18:48;101997.16;;;9.43;71.08
63204;BME280;49297;43.210;27.914;2022-11-15T00:21:14;102001.78;;;9.40;71.33
63204;BME280;49297;43.210;27.914;2022-11-15T00:23:40;101996.41;;;9.41;71.77
63204;BME280;49297;43.210;27.914;2022-11-15T00:26:08;101991.66;;;9.46;71.62
63204;BME280;49297;43.210;27.914;2022-11-15T00:28:36;101991.66;;;9.46;71.29
63204;BME280;49297;43.210;27.914;2022-11-15T00:31:04;101993.00;;;9.39;71.04
63204;BME280;49297;43.210;27.914;2022-11-15T00:33:30;101989.03;;;9.32;71.44
63204;BME280;49297;43.210;27.914;2022-11-15T00:36:04;101990.84;;;9.31;71.67
63204;BME280;49297;43.210;27.914;2022-11-15T00:38:31;101986.31;;;9.33;71.40
63204;BME280;49297;43.210;27.914;2022-11-15T00:40:57;101979.81;;;9.25;71.49
63204;BME280;49297;43.210;27.914;2022-11-15T00:43:23;101979.16;;;9.21;71.59
63204;BME280;49297;43.210;27.914;2022-11-15T00:45:49;101980.03;;;9.22;72.02
63204;BME280;49297;43.210;27.914;2022-11-15T00:48:15;101971.97;;;9.23;71.73
63204;BME280;49297;43.210;27.914;2022-11-15T00:50:40;101972.53;;;9.28;71.44
63204;BME280;49297;43.210;27.914;2022-11-15T00:53:06;101979.53;;;9.29;72.12
63204;BME280;49297;43.210;27.914;2022-11-15T00:55:32;101978.38;;;9.33;71.65
63204;BME280;49297;43.210;27.914;2022-11-15T00:57:58;101971.00;;;9.39;72.07
63204;BME280;49297;43.210;27.914;2022-11-15T01:00:23;101968.56;;;9.36;71.66
63204;BME280;49297;43.210;27.914;2022-11-15T01:02:49;101970.25;;;9.37;71.35
63204;BME280;49297;43.210;27.914;2022-11-15T01:05:15;101969.31;;;9.38;71.28
63204;BME280;49297;43.210;27.914;2022-11-15T01:07:41;101965.63;;;9.40;71.63
63204;BME280;49297;43.210;27.914;2022-11-15T01:10:07;101964.56;;;9.43;71.42
63204;BME280;49297;43.210;27.914;2022-11-15T01:12:33;101963.81;;;9.41;71.63
63204;BME280;49297;43.210;27.914;2022-11-15T01:14:59;101954.00;;;9.43;71.16
63204;BME280;49297;43.210;27.914;2022-11-15T01:17:25;101958.25;;;9.45;71.41
63204;BME280;49297;43.210;27.914;2022-11-15T01:19:50;101960.78;;;9.47;71.58
63204;BME280;49297;43.210;27.914;2022-11-15T01:22:16;101971.38;;;9.47;71.84
63204;BME280;49297;43.210;27.914;2022-11-15T01:24:42;101969.75;;;9.44;71.37
63204;BME280;49297;43.210;27.914;2022-11-15T01:27:08;101970.72;;;9.43;71.84
63204;BME280;49297;43.210;27.914;2022-11-15T01:29:34;101973.38;;;9.43;71.41
63204;BME280;49297;43.210;27.914;2022-11-15T01:32:00;101962.13;;;9.40;71.21
63204;BME280;49297;43.210;27.914;2022-11-15T01:34:26;101964.22;;;9.34;71.77
63204;BME280;49297;43.210;27.914;2022-11-15T01:36:52;101951.72;;;9.24;72.12
63204;BME280;49297;43.210;27.914;2022-11-15T01:39:18;101958.91;;;9.22;71.77
63204;BME280;49297;43.210;27.914;2022-11-15T01:41:43;101968.59;;;9.21;71.53
63204;BME280;49297;43.210;27.914;2022-11-15T01:46:58;101970.00;;;9.27;71.82
63204;BME280;49297;43.210;27.914;2022-11-15T01:49:27;101964.72;;;9.27;71.96
63204;BME280;49297;43.210;27.914;2022-11-15T01:51:55;101962.19;;;9.25;71.86
63204;BME280;49297;43.210;27.914;2022-11-15T01:54:23;101955.94;;;9.26;72.24
63204;BME280;49297;43.210;27.914;2022-11-15T01:57:01;101955.00;;;9.27;72.00
63204;BME280;49297;43.210;27.914;2022-11-15T01:59:30;101953.00;;;9.31;72.52
63204;BME280;49297;43.210;27.914;2022-11-15T02:01:56;101947.72;;;9.31;72.56
63204;BME280;49297;43.210;27.914;2022-11-15T02:04:26;101944.88;;;9.34;72.69
63204;BME280;49297;43.210;27.914;2022-11-15T02:06:53;101940.34;;;9.36;73.06
63204;BME280;49297;43.210;27.914;2022-11-15T02:09:19;101941.19;;;9.37;72.81
63204;BME280;49297;43.210;27.914;2022-11-15T02:11:46;101935.91;;;9.37;73.22
63204;BME280;49297;43.210;27.914;2022-11-15T02:14:13;101941.19;;;9.37;72.69
63204;BME280;49297;43.210;27.914;2022-11-15T02:22:10;101936.84;;;9.36;72.42
63204;BME280;49297;43.210;27.914;2022-11-15T02:30:45;101936.19;;;9.32;72.52
63204;BME280;49297;43.210;27.914;2022-11-15T02:33:32;101932.59;;;9.33;72.84
63204;BME280;49297;43.210;27.914;2022-11-15T02:36:00;101935.16;;;9.34;72.82
63204;BME280;49297;43.210;27.914;2022-11-15T02:38:50;101934.19;;;9.36;72.68
63204;BME280;49297;43.210;27.914;2022-11-15T02:41:25;101933.66;;;9.30;72.34
63204;BME280;49297;43.210;27.914;2022-11-15T02:49:23;101925.97;;;9.40;72.80
63204;BME280;49297;43.210;27.914;2022-11-15T02:51:52;101923.34;;;9.40;72.06
63204;BME280;49297;43.210;27.914;2022-11-15T02:54:22;101922.06;;;9.46;72.76
63204;BME280;49297;43.210;27.914;2022-11-15T02:56:49;101912.25;;;9.48;72.36
63204;BME280;49297;43.210;27.914;2022-11-15T03:04:58;101909.41;;;9.51;72.20
63204;BME280;49297;43.210;27.914;2022-11-15T03:10:42;101904.97;;;9.51;71.95
63204;BME280;49297;43.210;27.914;2022-11-15T03:16:21;101905.41;;;9.58;72.12
63204;BME280;49297;43.210;27.914;2022-11-15T03:19:13;101895.56;;;9.60;71.89
63204;BME280;49297;43.210;27.914;2022-11-15T03:21:42;101902.75;;;9.58;71.85
63204;BME280;49297;43.210;27.914;2022-11-15T03:24:11;101896.63;;;9.58;71.45
63204;BME280;49297;43.210;27.914;2022-11-15T03:26:39;101901.81;;;9.59;71.78
63204;BME280;49297;43.210;27.914;2022-11-15T03:29:11;101892.94;;;9.60;71.05
63204;BME280;49297;43.210;27.914;2022-11-15T03:31:42;101890.28;;;9.60;71.15
63204;BME280;49297;43.210;27.914;2022-11-15T03:34:26;101894.63;;;9.61;71.67
63204;BME280;49297;43.210;27.914;2022-11-15T03:36:53;101886.59;;;9.63;71.30
63204;BME280;49297;43.210;27.914;2022-11-15T03:39:20;101891.78;;;9.64;71.25
63204;BME280;49297;43.210;27.914;2022-11-15T03:47:31;101882.69;;;9.68;71.75
63204;BME280;49297;43.210;27.914;2022-11-15T03:50:08;101866.81;;;9.68;71.23
63204;BME280;49297;43.210;27.914;2022-11-15T03:52:36;101870.31;;;9.69;71.61
63204;BME280;49297;43.210;27.914;2022-11-15T03:55:04;101867.75;;;9.67;71.49
63204;BME280;49297;43.210;27.914;2022-11-15T03:57:31;101872.13;;;9.68;71.29
63204;BME280;49297;43.210;27.914;2022-11-15T03:59:56;101864.09;;;9.70;71.36
63204;BME280;49297;43.210;27.914;2022-11-15T04:02:22;101868.50;;;9.69;71.59
63204;BME280;49297;43.210;27.914;2022-11-15T04:04:48;101865.03;;;9.69;71.42
63204;BME280;49297;43.210;27.914;2022-11-15T04:07:14;101864.19;;;9.68;71.48
63204;BME280;49297;43.210;27.914;2022-11-15T04:09:40;101866.09;;;9.66;71.40
63204;BME280;49297;43.210;27.914;2022-11-15T04:12:24;101868.19;;;9.61;71.61
63204;BME280;49297;43.210;27.914;2022-11-15T04:15:17;101869.03;;;9.62;71.94
63204;BME280;49297;43.210;27.914;2022-11-15T04:17:49;101866.38;;;9.62;71.52
63204;BME280;49297;43.210;27.914;2022-11-15T04:23:05;101865.94;;;9.55;71.63
63204;BME280;49297;43.210;27.914;2022-11-15T04:25:51;101867.94;;;9.51;71.56
63204;BME280;49297;43.210;27.914;2022-11-15T04:28:18;101862.56;;;9.53;71.80
63204;BME280;49297;43.210;27.914;2022-11-15T04:30:45;101858.00;;;9.55;71.38
63204;BME280;49297;43.210;27.914;2022-11-15T04:33:11;101865.00;;;9.56;72.10
63204;BME280;49297;43.210;27.914;2022-11-15T04:35:36;101860.47;;;9.58;71.93
63204;BME280;49297;43.210;27.914;2022-11-15T04:38:04;101861.81;;;9.51;71.32
63204;BME280;49297;43.210;27.914;2022-11-15T04:40:30;101860.13;;;9.50;72.09
63204;BME280;49297;43.210;27.914;2022-11-15T04:42:57;101857.47;;;9.50;72.18
63204;BME280;49297;43.210;27.914;2022-11-15T04:45:23;101860.13;;;9.50;71.78
63204;BME280;49297;43.210;27.914;2022-11-15T04:47:49;101855.06;;;9.47;71.87
63204;BME280;49297;43.210;27.914;2022-11-15T04:50:15;101858.81;;;9.43;71.73
63204;BME280;49297;43.210;27.914;2022-11-15T04:52:43;101864.13;;;9.43;71.84
63204;BME280;49297;43.210;27.914;2022-11-15T04:55:10;101859.47;;;9.46;72.25
63204;BME280;49297;43.210;27.914;2022-11-15T04:57:37;101855.69;;;9.50;72.67
63204;BME280;49297;43.210;27.914;2022-11-15T05:00:12;101854.63;;;9.53;72.09
63204;BME280;49297;43.210;27.914;2022-11-15T05:02:39;101852.72;;;9.55;72.23
63204;BME280;49297;43.210;27.914;2022-11-15T05:05:23;101854.44;;;9.56;72.28
63204;BME280;49297;43.210;27.914;2022-11-15T05:07:49;101859.72;;;9.56;72.27
63204;BME280;49297;43.210;27.914;2022-11-15T05:10:15;101852.81;;;9.53;71.50
63204;BME280;49297;43.210;27.914;2022-11-15T05:12:41;101854.63;;;9.53;71.99
63204;BME280;49297;43.210;27.914;2022-11-15T05:15:07;101858.09;;;9.53;72.07
63204;BME280;49297;43.210;27.914;2022-11-15T05:17:34;101856.09;;;9.57;72.08
63204;BME280;49297;43.210;27.914;2022-11-15T05:20:00;101854.44;;;9.56;71.72
63204;BME280;49297;43.210;27.914;2022-11-15T05:22:26;101857.06;;;9.56;71.52
63204;BME280;49297;43.210;27.914;2022-11-15T05:24:52;101862.56;;;9.53;71.84
63204;BME280;49297;43.210;27.914;2022-11-15T05:27:18;101858.44;;;9.49;71.36
63204;BME280;49297;43.210;27.914;2022-11-15T05:29:44;101856.81;;;9.46;71.23
63204;BME280;49297;43.210;27.914;2022-11-15T05:32:11;101863.19;;;9.44;72.08
63204;BME280;49297;43.210;27.914;2022-11-15T05:34:37;101861.47;;;9.43;71.65
63204;BME280;49297;43.210;27.914;2022-11-15T05:37:03;101856.31;;;9.41;71.78
63204;BME280;49297;43.210;27.914;2022-11-15T05:39:29;101861.59;;;9.41;71.92
63204;BME280;49297;43.210;27.914;2022-11-15T05:41:59;101864.34;;;9.40;72.30
63204;BME280;49297;43.210;27.914;2022-11-15T05:44:27;101862.53;;;9.40;71.67
63204;BME280;49297;43.210;27.914;2022-11-15T05:46:54;101860.53;;;9.44;72.05
63204;BME280;49297;43.210;27.914;2022-11-15T05:49:25;101863.28;;;9.42;71.72
63204;BME280;49297;43.210;27.914;2022-11-15T05:51:53;101867.41;;;9.46;71.79
63204;BME280;49297;43.210;27.914;2022-11-15T05:54:20;101868.03;;;9.50;72.04
63204;BME280;49297;43.210;27.914;2022-11-15T05:56:46;101867.00;;;9.52;71.81
63204;BME280;49297;43.210;27.914;2022-11-15T05:59:13;101870.28;;;9.56;71.53
63204;BME280;49297;43.210;27.914;2022-11-15T06:01:39;101865.19;;;9.53;71.30
63204;BME280;49297;43.210;27.914;2022-11-15T06:04:06;101864.38;;;9.52;71.05
63204;BME280;49297;43.210;27.914;2022-11-15T06:06:32;101873.13;;;9.53;71.24
63204;BME280;49297;43.210;27.914;2022-11-15T06:08:57;101868.69;;;9.53;70.64
63204;BME280;49297;43.210;27.914;2022-11-15T06:11:23;101867.19;;;9.49;70.81
63204;BME280;49297;43.210;27.914;2022-11-15T06:13:49;101873.56;;;9.47;70.73
63204;BME280;49297;43.210;27.914;2022-11-15T06:16:16;101867.09;;;9.51;71.39
63204;BME280;49297;43.210;27.914;2022-11-15T06:18:42;101869.22;;;9.59;71.13
63204;BME280;49297;43.210;27.914;2022-11-15T06:21:08;101873.28;;;9.64;70.96
63204;BME280;49297;43.210;27.914;2022-11-15T06:23:34;101863.97;;;9.71;71.50
63204;BME280;49297;43.210;27.914;2022-11-15T06:26:02;101861.84;;;9.77;70.78
63204;BME280;49297;43.210;27.914;2022-11-15T06:28:29;101860.81;;;9.79;70.69
63204;BME280;49297;43.210;27.914;2022-11-15T06:31:01;101866.63;;;9.84;70.49
63204;BME280;49297;43.210;27.914;2022-11-15T06:33:27;101867.91;;;9.91;70.60
63204;BME280;49297;43.210;27.914;2022-11-15T06:35:54;101860.28;;;10.00;70.54
63204;BME280;49297;43.210;27.914;2022-11-15T06:38:20;101867.91;;;10.04;70.84
63204;BME280;49297;43.210;27.914;2022-11-15T06:40:46;101867.06;;;10.04;70.24
63204;BME280;49297;43.210;27.914;2022-11-15T06:43:12;101867.47;;;9.98;69.81
63204;BME280;49297;43.210;27.914;2022-11-15T06:45:38;101866.53;;;9.99;70.63
63204;BME280;49297;43.210;27.914;2022-11-15T06:48:04;101861.25;;;9.99;69.96
63204;BME280;49297;43.210;27.914;2022-11-15T06:50:30;101856.38;;;10.05;70.59
63204;BME280;49297;43.210;27.914;2022-11-15T06:53:00;101858.38;;;10.15;70.71
63204;BME280;49297;43.210;27.914;2022-11-15T06:55:29;101855.84;;;10.13;69.56
63204;BME280;49297;43.210;27.914;2022-11-15T06:57:54;101858.13;;;10.18;69.90
63204;BME280;49297;43.210;27.914;2022-11-15T07:00:21;101862.09;;;10.25;70.56
63204;BME280;49297;43.210;27.914;2022-11-15T07:02:48;101863.38;;;10.32;70.43
63204;BME280;49297;43.210;27.914;2022-11-15T07:05:14;101873.72;;;10.35;70.68
63204;BME280;49297;43.210;27.914;2022-11-15T07:07:41;101863.03;;;10.37;70.47
63204;BME280;49297;43.210;27.914;2022-11-15T07:10:07;101861.47;;;10.34;69.56
63204;BME280;49297;43.210;27.914;2022-11-15T07:12:33;101862.00;;;10.39;69.60
63204;BME280;49297;43.210;27.914;2022-11-15T07:14:59;101861.66;;;10.44;69.67
63204;BME280;49297;43.210;27.914;2022-11-15T07:17:25;101860.06;;;10.41;69.12
63204;BME280;49297;43.210;27.914;2022-11-15T07:19:50;101860.28;;;10.38;69.17
63204;BME280;49297;43.210;27.914;2022-11-15T07:22:16;101854.25;;;10.36;69.40
63204;BME280;49297;43.210;27.914;2022-11-15T07:24:42;101854.63;;;10.30;69.34
63204;BME280;49297;43.210;27.914;2022-11-15T07:27:08;101848.72;;;10.26;68.97
63204;BME280;49297;43.210;27.914;2022-11-15T07:29:34;101847.25;;;10.22;69.38
63204;BME280;49297;43.210;27.914;2022-11-15T07:32:00;101851.06;;;10.18;70.11
63204;BME280;49297;43.210;27.914;2022-11-15T07:34:27;101851.06;;;10.18;69.89
63204;BME280;49297;43.210;27.914;2022-11-15T07:36:53;101851.19;;;10.17;70.24
63204;BME280;49297;43.210;27.914;2022-11-15T07:39:19;101854.13;;;10.12;70.08
63204;BME280;49297;43.210;27.914;2022-11-15T07:41:45;101852.56;;;10.09;70.82
63204;BME280;49297;43.210;27.914;2022-11-15T07:44:13;101855.09;;;10.11;70.56
63204;BME280;49297;43.210;27.914;2022-11-15T07:46:39;101851.28;;;10.15;70.65
63204;BME280;49297;43.210;27.914;2022-11-15T07:49:05;101853.63;;;10.20;70.87
63204;BME280;49297;43.210;27.914;2022-11-15T07:51:31;101851.06;;;10.18;70.75
63204;BME280;49297;43.210;27.914;2022-11-15T07:53:58;101848.94;;;10.23;71.22
63204;BME280;49297;43.210;27.914;2022-11-15T07:56:24;101843.56;;;10.25;71.03
63204;BME280;49297;43.210;27.914;2022-11-15T07:58:49;101849.59;;;10.27;70.66
63204;BME280;49297;43.210;27.914;2022-11-15T08:01:15;101836.44;;;10.25;70.71
63204;BME280;49297;43.210;27.914;2022-11-15T08:03:41;101847.03;;;10.25;70.95
63204;BME280;49297;43.210;27.914;2022-11-15T08:06:07;101856.03;;;10.23;70.82
63204;BME280;49297;43.210;27.914;2022-11-15T08:08:33;101846.31;;;10.23;70.87
63204;BME280;49297;43.210;27.914;2022-11-15T08:10:59;101852.53;;;10.22;71.27
63204;BME280;49297;43.210;27.914;2022-11-15T08:13:25;101853.63;;;10.20;71.06
63204;BME280;49297;43.210;27.914;2022-11-15T08:15:51;101847.69;;;10.16;70.76
63204;BME280;49297;43.210;27.914;2022-11-15T08:18:16;101852.34;;;10.13;71.52
63204;BME280;49297;43.210;27.914;2022-11-15T08:20:43;101849.81;;;10.11;71.43
63204;BME280;49297;43.210;27.914;2022-11-15T08:23:11;101852.34;;;10.00;71.73
63204;BME280;49297;43.210;27.914;2022-11-15T08:25:38;101848.13;;;9.97;72.32
63204;BME280;49297;43.210;27.914;2022-11-15T08:28:06;101847.03;;;10.00;72.13
63204;BME280;49297;43.210;27.914;2022-11-15T08:30:41;101847.81;;;10.02;72.84
63204;BME280;49297;43.210;27.914;2022-11-15T08:33:11;101838.59;;;10.07;72.58
63204;BME280;49297;43.210;27.914;2022-11-15T08:35:37;101842.06;;;10.08;72.62
63204;BME280;49297;43.210;27.914;2022-11-15T08:38:03;101836.69;;;10.09;72.26
63204;BME280;49297;43.210;27.914;2022-11-15T08:40:29;101832.84;;;10.14;72.61
63204;BME280;49297;43.210;27.914;2022-11-15T08:42:55;101836.88;;;10.06;72.67
63204;BME280;49297;43.210;27.914;2022-11-15T08:45:22;101830.13;;;10.02;72.32
63204;BME280;49297;43.210;27.914;2022-11-15T08:47:47;101828.22;;;10.04;72.83
63204;BME280;49297;43.210;27.914;2022-11-15T08:50:14;101822.47;;;10.10;72.39
63204;BME280;49297;43.210;27.914;2022-11-15T08:52:39;101821.00;;;10.19;72.38
63204;BME280;49297;43.210;27.914;2022-11-15T08:55:05;101814.66;;;10.22;72.25
63204;BME280;49297;43.210;27.914;2022-11-15T08:57:31;101813.25;;;10.29;72.17
63204;BME280;49297;43.210;27.914;2022-11-15T08:59:57;101806.09;;;10.31;72.36
63204;BME280;49297;43.210;27.914;2022-11-15T09:02:23;101799.84;;;10.32;72.29
63204;BME280;49297;43.210;27.914;2022-11-15T09:04:49;101801.69;;;10.30;72.15
63204;BME280;49297;43.210;27.914;2022-11-15T09:07:15;101801.69;;;10.30;72.38
63204;BME280;49297;43.210;27.914;2022-11-15T09:09:40;101795.50;;;10.31;72.11
63204;BME280;49297;43.210;27.914;2022-11-15T09:12:07;101794.84;;;10.27;72.40
63204;BME280;49297;43.210;27.914;2022-11-15T09:14:33;101800.69;;;10.33;72.63
63204;BME280;49297;43.210;27.914;2022-11-15T09:17:00;101794.00;;;10.40;72.18
63204;BME280;49297;43.210;27.914;2022-11-15T09:19:25;101783.06;;;10.44;71.84
63204;BME280;49297;43.210;27.914;2022-11-15T09:21:51;101778.53;;;10.46;72.27
63204;BME280;49297;43.210;27.914;2022-11-15T09:24:17;101778.91;;;10.53;71.98
63204;BME280;49297;43.210;27.914;2022-11-15T09:26:43;101773.78;;;10.63;71.97
63204;BME280;49297;43.210;27.914;2022-11-15T09:29:09;101781.38;;;10.67;71.24
63204;BME280;49297;43.210;27.914;2022-11-15T09:31:35;101778.31;;;10.74;71.46
63204;BME280;49297;43.210;27.914;2022-11-15T09:34:01;101774.13;;;10.82;71.27
63204;BME280;49297;43.210;27.914;2022-11-15T09:36:27;101765.50;;;10.92;70.88
63204;BME280;49297;43.210;27.914;2022-11-15T09:38:53;101759.28;;;11.04;70.81
63204;BME280;49297;43.210;27.914;2022-11-15T09:41:48;101761.34;;;11.12;70.13
63204;BME280;49297;43.210;27.914;2022-11-15T09:50:40;101754.00;;;11.15;69.54
63204;BME280;49297;43.210;27.914;2022-11-15T09:53:22;101749.91;;;11.11;69.54
63204;BME280;49297;43.210;27.914;2022-11-15T09:56:15;101752.38;;;11.01;69.80
63204;BME280;49297;43.210;27.914;2022-11-15T09:58:50;101753.97;;;11.04;69.99
63204;BME280;49297;43.210;27.914;2022-11-15T10:03:51;101743.00;;;11.09;69.79
63204;BME280;49297;43.210;27.914;2022-11-15T10:06:26;101744.00;;;11.19;69.89
63204;BME280;49297;43.210;27.914;2022-11-15T10:09:15;101740.19;;;11.34;69.56
63204;BME280;49297;43.210;27.914;2022-11-15T10:11:43;101744.06;;;11.41;69.55
63204;BME280;49297;43.210;27.914;2022-11-15T10:14:18;101748.06;;;11.47;69.16
63204;BME280;49297;43.210;27.914;2022-11-15T10:22:41;101719.84;;;11.69;69.04
63204;BME280;49297;43.210;27.914;2022-11-15T10:27:51;101710.47;;;11.87;68.92
63204;BME280;49297;43.210;27.914;2022-11-15T10:30:23;101710.59;;;11.97;68.67
63204;BME280;49297;43.210;27.914;2022-11-15T10:32:54;101703.81;;;12.04;68.74
63204;BME280;49297;43.210;27.914;2022-11-15T10:35:29;101699.72;;;12.11;68.78
63204;BME280;49297;43.210;27.914;2022-11-15T10:38:10;101696.44;;;12.19;68.61
63204;BME280;49297;43.210;27.914;2022-11-15T10:40:38;101692.47;;;12.25;68.54
63204;BME280;49297;43.210;27.914;2022-11-15T10:43:12;101697.19;;;12.21;67.83
63204;BME280;49297;43.210;27.914;2022-11-15T10:45:39;101684.50;;;12.25;67.60
63204;BME280;49297;43.210;27.914;2022-11-15T10:50:37;101684.28;;;12.05;67.64
63204;BME280;49297;43.210;27.914;2022-11-15T10:53:04;101685.25;;;12.04;67.81
63204;BME280;49297;43.210;27.914;2022-11-15T10:55:40;101677.06;;;11.96;68.01
63204;BME280;49297;43.210;27.914;2022-11-15T11:00:46;101677.06;;;11.96;68.33
63204;BME280;49297;43.210;27.914;2022-11-15T11:03:28;101672.00;;;11.93;68.32
63204;BME280;49297;43.210;27.914;2022-11-15T11:06:10;101661.13;;;11.96;68.39
63204;BME280;49297;43.210;27.914;2022-11-15T11:08:36;101660.88;;;11.99;68.01
63204;BME280;49297;43.210;27.914;2022-11-15T11:11:03;101652.09;;;11.98;68.50
63204;BME280;49297;43.210;27.914;2022-11-15T11:13:37;101644.59;;;12.04;68.33
63204;BME280;49297;43.210;27.914;2022-11-15T11:21:40;101637.06;;;12.20;67.65
63204;BME280;49297;43.210;27.914;2022-11-15T11:24:15;101629.47;;;12.15;67.54
63204;BME280;49297;43.210;27.914;2022-11-15T11:29:35;101625.97;;;12.15;67.93
63204;BME280;49297;43.210;27.914;2022-11-15T11:32:40;101621.13;;;12.20;67.91
63204;BME280;49297;43.210;27.914;2022-11-15T11:35:34;101615.31;;;12.26;68.00
63204;BME280;49297;43.210;27.914;2022-11-15T11:41:03;101609.72;;;12.41;67.89
63204;BME280;49297;43.210;27.914;2022-11-15T11:49:09;101603.25;;;12.54;67.30
63204;BME280;49297;43.210;27.914;2022-11-15T11:51:41;101592.03;;;12.51;67.09
63204;BME280;49297;43.210;27.914;2022-11-15T11:54:32;101592.72;;;12.53;67.15
63204;BME280;49297;43.210;27.914;2022-11-15T11:57:09;101588.75;;;12.59;66.93
63204;BME280;49297;43.210;27.914;2022-11-15T11:59:46;101588.22;;;12.65;66.49
63204;BME280;49297;43.210;27.914;2022-11-15T12:02:30;101585.75;;;12.73;66.62
63204;BME280;49297;43.210;27.914;2022-11-15T12:05:27;101578.53;;;12.85;66.10
63204;BME280;49297;43.210;27.914;2022-11-15T12:08:03;101576.91;;;12.93;65.95
63204;BME280;49297;43.210;27.914;2022-11-15T12:10:32;101572.16;;;12.97;65.24
63204;BME280;49297;43.210;27.914;2022-11-15T12:13:09;101567.69;;;12.98;64.96
63204;BME280;49297;43.210;27.914;2022-11-15T12:15:45;101571.78;;;13.02;64.71
63204;BME280;49297;43.210;27.914;2022-11-15T12:18:16;101564.13;;;13.08;64.44
63204;BME280;49297;43.210;27.914;2022-11-15T12:20:54;101563.19;;;13.19;64.18
63204;BME280;49297;43.210;27.914;2022-11-15T12:23:28;101552.97;;;13.24;64.04
63204;BME280;49297;43.210;27.914;2022-11-15T12:26:29;101559.72;;;13.28;63.81
63204;BME280;49297;43.210;27.914;2022-11-15T12:28:49;101549.91;;;13.29;63.83
63204;BME280;49297;43.210;27.914;2022-11-15T12:31:24;101541.38;;;13.25;63.85
63204;BME280;49297;43.210;27.914;2022-11-15T12:33:57;101539.97;;;13.21;63.74
63204;BME280;49297;43.210;27.914;2022-11-15T12:38:59;101537.31;;;13.21;63.94
63204;BME280;49297;43.210;27.914;2022-11-15T12:41:29;101530.88;;;13.24;63.87
63204;BME280;49297;43.210;27.914;2022-11-15T12:43:55;101527.94;;;13.27;63.77
63204;BME280;49297;43.210;27.914;2022-11-15T12:46:58;101530.59;;;13.27;64.03
63204;BME280;49297;43.210;27.914;2022-11-15T12:59:54;101523.19;;;13.30;63.52
63204;BME280;49297;43.210;27.914;2022-11-15T13:04:54;101507.50;;;13.27;63.55
63204;BME280;49297;43.210;27.914;2022-11-15T13:12:58;101504.84;;;13.27;63.69
63204;BME280;49297;43.210;27.914;2022-11-15T13:15:55;101504.84;;;13.27;63.34
63204;BME280;49297;43.210;27.914;2022-11-15T13:18:32;101498.69;;;13.27;63.47
63204;BME280;49297;43.210;27.914;2022-11-15T13:20:59;101496.28;;;13.24;63.75
63204;BME280;49297;43.210;27.914;2022-11-15T13:23:26;101485.91;;;13.21;63.44
63204;BME280;49297;43.210;27.914;2022-11-15T13:25:55;101479.91;;;13.19;63.39
63204;BME280;49297;43.210;27.914;2022-11-15T13:30:59;101477.94;;;13.11;64.02
63204;BME280;49297;43.210;27.914;2022-11-15T13:33:36;101477.94;;;13.11;64.06
63204;BME280;49297;43.210;27.914;2022-11-15T13:36:30;101479.06;;;13.08;64.25
63204;BME280;49297;43.210;27.914;2022-11-15T13:39:05;101476.53;;;13.07;64.32
63204;BME280;49297;43.210;27.914;2022-11-15T13:41:34;101475.38;;;13.00;64.52
63204;BME280;49297;43.210;27.914;2022-11-15T13:44:01;101471.16;;;12.97;64.71
63204;BME280;49297;43.210;27.914;2022-11-15T13:46:29;101471.44;;;12.94;64.97
63204;BME280;49297;43.210;27.914;2022-11-15T13:49:01;101470.72;;;12.92;65.17
63204;BME280;49297;43.210;27.914;2022-11-15T13:56:40;101463.44;;;12.84;65.87
63204;BME280;49297;43.210;27.914;2022-11-15T13:59:14;101464.56;;;12.82;65.83
63204;BME280;49297;43.210;27.914;2022-11-15T14:01:42;101462.16;;;12.79;66.09
63204;BME280;49297;43.210;27.914;2022-11-15T14:04:14;101461.84;;;12.72;66.04
63204;BME280;49297;43.210;27.914;2022-11-15T14:06:46;101456.78;;;12.69;65.66
63204;BME280;49297;43.210;27.914;2022-11-15T14:11:56;101451.19;;;12.62;66.11
63204;BME280;49297;43.210;27.914;2022-11-15T14:14:23;101446.13;;;12.59;66.27
63204;BME280;49297;43.210;27.914;2022-11-15T14:16:53;101448.22;;;12.55;66.09
63204;BME280;49297;43.210;27.914;2022-11-15T14:22:14;101449.47;;;12.51;66.50
63204;BME280;49297;43.210;27.914;2022-11-15T14:24:43;101436.44;;;12.48;66.41
63204;BME280;49297;43.210;27.914;2022-11-15T14:27:26;101434.88;;;12.46;66.47
63204;BME280;49297;43.210;27.914;2022-11-15T14:29:53;101426.22;;;12.44;66.66
63204;BME280;49297;43.210;27.914;2022-11-15T14:32:24;101422.00;;;12.41;66.93
63204;BME280;49297;43.210;27.914;2022-11-15T14:34:55;101415.13;;;12.38;67.06
63204;BME280;49297;43.210;27.914;2022-11-15T14:37:28;101406.47;;;12.36;66.67
63204;BME280;49297;43.210;27.914;2022-11-15T14:39:56;101406.72;;;12.33;67.11
63204;BME280;49297;43.210;27.914;2022-11-15T14:42:23;101402.28;;;12.34;66.96
63204;BME280;49297;43.210;27.914;2022-11-15T14:44:49;101397.22;;;12.31;67.45
63204;BME280;49297;43.210;27.914;2022-11-15T14:47:15;101391.91;;;12.31;67.49
63204;BME280;49297;43.210;27.914;2022-11-15T14:49:41;101392.16;;;12.28;67.64
63204;BME280;49297;43.210;27.914;2022-11-15T14:52:23;101386.16;;;12.26;67.52